Time;durP1;ratioP1;P1;durP2;ratioP2;P2;SDS_P1;SDS_P2;PMS_P1;PMS_P2;Temp;Humidity;BMP_temperature;BMP_pressure;BME280_temperature;BME280_humidity;BME280_pressure;Samples;Min_cycle;Max_cycle;Signal;HPM_P1;HPM_P2
2023/10/31 00:01:55;;;;;;;2.65;1.73;;;25.50;49.20;;;;;;5092102;28;20036;-69
2023/10/31 00:04:22;;;;;;;3.78;2.30;;;25.50;49.20;;;;;;5092446;28;20036;-70
2023/10/31 00:06:48;;;;;;;4.88;2.30;;;25.60;49.30;;;;;;5077027;28;20064;-68
2023/10/31 00:09:14;;;;;;;4.10;2.70;;;25.50;49.30;;;;;;5080031;28;20104;-68
2023/10/31 00:11:42;;;;;;;4.10;2.45;;;25.40;49.40;;;;;;5072674;28;20444;-67
2023/10/31 00:14:08;;;;;;;4.20;2.00;;;25.50;49.40;;;;;;5089935;28;20052;-69
2023/10/31 00:16:34;;;;;;;4.95;2.40;;;25.50;49.50;;;;;;5083836;28;20097;-68
2023/10/31 00:19:00;;;;;;;5.32;2.38;;;25.50;49.50;;;;;;5091600;28;20355;-68
2023/10/31 00:21:28;;;;;;;9.27;2.80;;;25.60;49.50;;;;;;5092746;28;20531;-67
2023/10/31 00:23:54;;;;;;;10.43;2.92;;;25.60;49.60;;;;;;5092493;28;20106;-69
2023/10/31 00:26:20;;;;;;;2.25;1.95;;;25.60;49.60;;;;;;5092565;28;20039;-69
2023/10/31 00:28:53;;;;;;;9.77;2.72;;;25.50;49.60;;;;;;5092424;28;20123;-66
2023/10/31 00:31:19;;;;;;;4.57;2.55;;;25.40;49.60;;;;;;5092356;28;20122;-68
2023/10/31 00:33:45;;;;;;;5.00;2.42;;;25.30;49.70;;;;;;5088645;28;20108;-68
2023/10/31 00:36:11;;;;;;;6.13;2.70;;;25.30;49.70;;;;;;5083348;28;20126;-69
2023/10/31 00:38:37;;;;;;;6.22;2.35;;;25.30;49.80;;;;;;5092865;28;20036;-66
2023/10/31 00:41:03;;;;;;;3.55;2.10;;;25.40;49.80;;;;;;5108897;28;20467;-68
2023/10/31 00:43:29;;;;;;;5.57;2.70;;;25.30;49.80;;;;;;5097883;28;20028;-68
2023/10/31 00:45:55;;;;;;;6.15;2.65;;;25.40;49.90;;;;;;5092035;28;20028;-68
2023/10/31 00:48:21;;;;;;;4.35;2.10;;;25.30;50.00;;;;;;5090820;28;20126;-69
2023/10/31 00:50:47;;;;;;;5.28;2.80;;;25.30;50.10;;;;;;5090477;28;20361;-69
2023/10/31 00:53:14;;;;;;;5.20;2.80;;;25.30;50.10;;;;;;5092084;28;20035;-69
2023/10/31 00:55:40;;;;;;;5.07;2.28;;;25.30;50.20;;;;;;5089140;28;20036;-68
2023/10/31 00:58:07;;;;;;;7.70;2.67;;;25.30;50.20;;;;;;5090251;28;20427;-69
2023/10/31 01:00:34;;;;;;;7.75;3.13;;;25.40;50.30;;;;;;5091428;28;20036;-68
2023/10/31 01:03:00;;;;;;;4.95;2.78;;;25.30;50.30;;;;;;5089865;28;20082;-68
2023/10/31 01:05:29;;;;;;;5.72;2.88;;;25.50;50.40;;;;;;5070576;28;20127;-69
2023/10/31 01:07:55;;;;;;;7.65;3.03;;;25.50;50.40;;;;;;5091657;28;20036;-69
2023/10/31 01:10:21;;;;;;;6.43;2.72;;;25.30;50.40;;;;;;5072345;28;20070;-68
2023/10/31 01:12:47;;;;;;;5.32;2.50;;;25.30;50.40;;;;;;5089837;28;20055;-68
2023/10/31 01:15:13;;;;;;;7.32;2.78;;;25.40;50.50;;;;;;5089383;28;20518;-67
2023/10/31 01:17:39;;;;;;;4.55;2.47;;;25.50;50.50;;;;;;5091741;28;20067;-68
2023/10/31 01:20:06;;;;;;;4.40;2.28;;;25.30;50.50;;;;;;5088947;28;20067;-67
2023/10/31 01:22:32;;;;;;;3.22;2.60;;;25.30;50.50;;;;;;5089044;28;20097;-69
2023/10/31 01:24:58;;;;;;;3.85;2.22;;;25.30;50.50;;;;;;5090025;28;20027;-68
2023/10/31 01:27:24;;;;;;;5.18;2.50;;;25.30;50.50;;;;;;5091151;28;20494;-68
2023/10/31 01:29:50;;;;;;;4.50;2.55;;;25.20;50.50;;;;;;5090980;28;20103;-70
2023/10/31 01:32:18;;;;;;;7.32;2.97;;;25.30;50.50;;;;;;5090962;28;20463;-71
2023/10/31 01:34:44;;;;;;;4.40;2.78;;;25.20;50.50;;;;;;5087436;28;20038;-69
2023/10/31 01:37:10;;;;;;;8.13;3.22;;;25.20;50.60;;;;;;5091350;28;20186;-70
2023/10/31 01:39:37;;;;;;;5.50;3.30;;;25.40;50.60;;;;;;5090874;28;20119;-69
2023/10/31 01:42:03;;;;;;;8.73;3.13;;;25.30;50.50;;;;;;5090039;28;20060;-70
2023/10/31 01:44:29;;;;;;;8.52;3.45;;;25.30;50.60;;;;;;5090287;28;20040;-69
2023/10/31 01:46:55;;;;;;;4.97;3.00;;;25.30;50.60;;;;;;5089671;28;20119;-70
2023/10/31 01:49:21;;;;;;;6.95;2.58;;;25.30;50.70;;;;;;5078930;28;20036;-70
2023/10/31 01:51:49;;;;;;;8.20;2.78;;;25.20;50.80;;;;;;5098646;28;20047;-70
2023/10/31 01:54:15;;;;;;;7.53;3.00;;;25.30;50.80;;;;;;5090887;28;20033;-69
2023/10/31 01:56:42;;;;;;;4.05;2.83;;;25.30;50.90;;;;;;5090494;28;20084;-70
2023/10/31 01:59:09;;;;;;;7.00;3.15;;;25.30;50.90;;;;;;5089320;28;20036;-68
2023/10/31 02:01:41;;;;;;;7.22;3.15;;;25.30;51.00;;;;;;5089327;28;20380;-69
2023/10/31 02:04:07;;;;;;;5.10;2.60;;;25.40;51.00;;;;;;5084109;28;20379;-69
2023/10/31 02:06:33;;;;;;;6.65;2.33;;;25.30;51.00;;;;;;5090845;28;20028;-69
2023/10/31 02:09:00;;;;;;;4.60;2.72;;;25.30;51.10;;;;;;5089325;28;20400;-70
2023/10/31 02:11:26;;;;;;;4.72;2.63;;;25.30;51.10;;;;;;5116697;28;20052;-70
2023/10/31 02:13:52;;;;;;;3.83;2.17;;;25.30;51.10;;;;;;5071949;28;20059;-70
2023/10/31 02:16:18;;;;;;;7.63;3.00;;;25.30;51.10;;;;;;5089221;28;20036;-69
2023/10/31 02:18:45;;;;;;;11.75;4.00;;;25.30;51.10;;;;;;5082427;28;20028;-68
2023/10/31 02:21:11;;;;;;;8.73;3.15;;;25.20;51.10;;;;;;5087646;28;20519;-69
2023/10/31 02:23:37;;;;;;;7.18;3.00;;;25.30;51.10;;;;;;5089425;28;20032;-70
2023/10/31 02:26:03;;;;;;;10.35;3.13;;;25.30;51.10;;;;;;5090367;28;20051;-70
2023/10/31 02:28:30;;;;;;;5.93;3.13;;;25.30;51.20;;;;;;5088250;28;20117;-70
2023/10/31 02:30:57;;;;;;;5.47;2.95;;;25.10;51.20;;;;;;5089378;28;20125;-70
2023/10/31 02:33:23;;;;;;;5.60;3.08;;;25.30;51.20;;;;;;5083116;28;20186;-70
2023/10/31 02:35:49;;;;;;;12.82;3.28;;;25.20;51.20;;;;;;5087179;28;20040;-70
2023/10/31 02:38:16;;;;;;;7.10;3.42;;;25.20;51.20;;;;;;5089039;28;20044;-70
2023/10/31 02:40:42;;;;;;;6.22;3.45;;;25.30;51.40;;;;;;5069160;28;20059;-69
2023/10/31 02:43:08;;;;;;;8.25;3.35;;;25.10;51.40;;;;;;5084383;28;20043;-69
2023/10/31 02:45:34;;;;;;;5.22;3.42;;;25.20;51.50;;;;;;5096594;28;20051;-69
2023/10/31 02:48:00;;;;;;;6.13;3.40;;;25.20;51.50;;;;;;5102380;28;20086;-69
2023/10/31 02:50:27;;;;;;;5.00;3.28;;;25.20;51.50;;;;;;5084127;28;20048;-70
2023/10/31 02:52:53;;;;;;;13.60;3.22;;;25.20;51.50;;;;;;5094270;28;20028;-70
2023/10/31 02:55:19;;;;;;;6.18;2.83;;;25.10;51.60;;;;;;5093920;28;20368;-70
2023/10/31 02:57:45;;;;;;;10.40;3.78;;;25.20;51.60;;;;;;5094132;28;20120;-69
2023/10/31 03:00:12;;;;;;;5.07;3.13;;;25.20;51.70;;;;;;5092605;28;20040;-69
2023/10/31 03:02:38;;;;;;;10.30;3.08;;;25.30;51.60;;;;;;5092953;28;20040;-70
2023/10/31 03:05:04;;;;;;;3.92;3.08;;;25.30;51.70;;;;;;5072242;28;20480;-68
2023/10/31 03:07:30;;;;;;;4.38;2.42;;;25.20;51.70;;;;;;5091305;28;20051;-70
2023/10/31 03:09:56;;;;;;;4.90;2.92;;;25.20;51.60;;;;;;5094314;28;20115;-69
2023/10/31 03:12:25;;;;;;;6.07;2.53;;;25.20;51.60;;;;;;5079623;28;20028;-70
2023/10/31 03:14:51;;;;;;;5.22;2.60;;;25.20;51.60;;;;;;5093546;28;20052;-70
2023/10/31 03:17:17;;;;;;;5.38;2.47;;;25.10;51.70;;;;;;5075215;28;20036;-70
2023/10/31 03:19:44;;;;;;;3.53;2.25;;;25.10;51.70;;;;;;5089625;28;20484;-68
2023/10/31 03:22:10;;;;;;;5.20;2.90;;;25.10;51.70;;;;;;5107790;28;20094;-69
2023/10/31 03:24:36;;;;;;;2.70;1.92;;;25.10;51.70;;;;;;5092649;28;20028;-69
2023/10/31 03:27:02;;;;;;;4.63;2.40;;;25.00;51.70;;;;;;5108093;28;20081;-70
2023/10/31 03:29:28;;;;;;;5.72;2.50;;;25.00;51.70;;;;;;5092060;28;20366;-68
2023/10/31 03:31:54;;;;;;;6.95;2.80;;;25.10;51.80;;;;;;5090742;28;20123;-69
2023/10/31 03:34:20;;;;;;;3.55;2.58;;;25.10;51.90;;;;;;5092413;28;20032;-69
2023/10/31 03:36:46;;;;;;;7.38;2.88;;;25.00;52.00;;;;;;5093365;28;20035;-69
2023/10/31 03:39:12;;;;;;;8.43;3.10;;;25.00;52.00;;;;;;5092833;28;20051;-69
2023/10/31 03:41:38;;;;;;;8.43;2.88;;;25.10;52.10;;;;;;5092917;28;20036;-69
2023/10/31 03:44:04;;;;;;;11.25;3.40;;;25.10;52.10;;;;;;5092354;28;20593;-70
2023/10/31 03:46:30;;;;;;;3.85;2.33;;;25.10;52.10;;;;;;5073283;28;20040;-69
2023/10/31 03:48:56;;;;;;;6.85;2.30;;;25.00;52.10;;;;;;5088498;28;20607;-70
2023/10/31 03:51:22;;;;;;;5.32;2.45;;;25.20;52.10;;;;;;5106510;28;20036;-69
2023/10/31 03:53:48;;;;;;;7.68;3.00;;;25.10;52.00;;;;;;5092928;28;20046;-69
2023/10/31 03:56:15;;;;;;;5.43;2.58;;;25.20;52.10;;;;;;5091603;28;20036;-70
2023/10/31 03:58:43;;;;;;;8.15;3.03;;;25.10;52.10;;;;;;5092607;28;20757;-69
2023/10/31 04:01:09;;;;;;;9.18;3.50;;;25.20;52.10;;;;;;5091999;28;20121;-70
2023/10/31 04:03:34;;;;;;;8.55;2.40;;;25.20;52.10;;;;;;5092756;28;20503;-70
2023/10/31 04:06:01;;;;;;;5.72;2.58;;;25.10;52.00;;;;;;5092441;28;20123;-69
2023/10/31 04:08:26;;;;;;;2.72;1.83;;;25.20;52.00;;;;;;5091229;28;20032;-70
2023/10/31 04:10:52;;;;;;;3.17;1.90;;;25.20;52.10;;;;;;5091603;28;20031;-68
2023/10/31 04:13:18;;;;;;;4.80;2.20;;;25.00;52.10;;;;;;5089674;28;20550;-69
2023/10/31 04:15:44;;;;;;;7.00;2.72;;;25.00;52.10;;;;;;5092095;28;20055;-69
2023/10/31 04:18:10;;;;;;;4.40;2.45;;;25.10;52.10;;;;;;5091941;28;20119;-70
2023/10/31 04:20:36;;;;;;;5.07;2.58;;;25.00;52.10;;;;;;5091737;28;20174;-68
2023/10/31 04:23:02;;;;;;;6.28;2.60;;;25.10;52.20;;;;;;5092098;28;20117;-70
2023/10/31 04:25:29;;;;;;;7.57;2.92;;;25.10;52.20;;;;;;5092600;28;20082;-69
2023/10/31 04:27:55;;;;;;;4.40;1.60;;;25.00;52.20;;;;;;5091661;28;20076;-70
2023/10/31 04:30:21;;;;;;;5.95;2.70;;;25.00;52.30;;;;;;5092465;28;20040;-70
2023/10/31 04:32:47;;;;;;;4.20;2.03;;;25.00;52.30;;;;;;5085682;28;20544;-68
2023/10/31 04:35:13;;;;;;;4.28;2.25;;;25.00;52.40;;;;;;5092358;28;20032;-69
2023/10/31 04:37:39;;;;;;;4.32;2.70;;;24.80;52.30;;;;;;5091721;28;20173;-70
2023/10/31 04:40:05;;;;;;;4.88;2.38;;;25.00;52.40;;;;;;5092190;28;20384;-70
2023/10/31 04:42:34;;;;;;;4.43;2.53;;;24.90;52.40;;;;;;5091976;28;20035;-68
2023/10/31 04:45:00;;;;;;;8.18;2.80;;;25.00;52.40;;;;;;5092039;28;20368;-70
2023/10/31 04:47:26;;;;;;;5.80;2.10;;;24.80;52.30;;;;;;5097551;28;20040;-70
2023/10/31 04:49:52;;;;;;;3.33;2.10;;;24.90;52.40;;;;;;5092099;28;20058;-67
2023/10/31 04:52:19;;;;;;;3.05;2.17;;;25.00;52.40;;;;;;5090324;28;20157;-70
2023/10/31 04:54:45;;;;;;;5.20;1.88;;;24.90;52.50;;;;;;5091713;28;20491;-70
2023/10/31 04:57:11;;;;;;;8.00;2.65;;;24.90;52.50;;;;;;5091638;28;20054;-69
2023/10/31 04:59:37;;;;;;;6.63;2.40;;;24.90;52.70;;;;;;5091297;28;20094;-70
2023/10/31 05:02:03;;;;;;;7.03;2.70;;;25.00;52.80;;;;;;5079815;28;20490;-70
2023/10/31 05:04:29;;;;;;;6.50;2.65;;;24.90;52.80;;;;;;5088649;28;20139;-70
2023/10/31 05:06:55;;;;;;;4.68;2.20;;;24.90;52.80;;;;;;5086129;28;20051;-69
2023/10/31 05:09:23;;;;;;;3.85;2.30;;;24.90;52.80;;;;;;5090320;28;20081;-69
2023/10/31 05:11:49;;;;;;;5.45;2.67;;;25.10;52.80;;;;;;5091542;28;20032;-69
2023/10/31 05:14:15;;;;;;;3.70;2.58;;;24.90;52.80;;;;;;5089411;28;20064;-70
2023/10/31 05:16:42;;;;;;;6.78;2.78;;;25.00;52.70;;;;;;5089857;28;20050;-70
2023/10/31 05:19:09;;;;;;;7.68;3.08;;;25.00;52.80;;;;;;5091375;28;20093;-68
2023/10/31 05:21:35;;;;;;;2.72;2.00;;;25.00;52.70;;;;;;5090803;28;20117;-70
2023/10/31 05:24:01;;;;;;;5.63;2.60;;;25.20;52.70;;;;;;5090728;28;20507;-68
2023/10/31 05:26:29;;;;;;;4.40;2.15;;;25.10;52.70;;;;;;5091219;28;20043;-69
2023/10/31 05:28:57;;;;;;;3.15;2.25;;;25.00;52.60;;;;;;5090007;28;20719;-70
2023/10/31 05:31:24;;;;;;;4.03;2.10;;;25.00;52.60;;;;;;5089776;28;20388;-69
2023/10/31 05:33:52;;;;;;;3.95;2.22;;;25.00;52.60;;;;;;5091190;28;20042;-70
2023/10/31 05:36:23;;;;;;;7.57;2.78;;;25.10;52.60;;;;;;5089998;28;20032;-70
2023/10/31 05:38:49;;;;;;;5.22;2.47;;;25.10;52.60;;;;;;5090773;28;20027;-69
2023/10/31 05:41:15;;;;;;;2.80;2.22;;;25.20;52.60;;;;;;5091393;28;20068;-70
2023/10/31 05:43:41;;;;;;;4.13;2.83;;;25.20;52.60;;;;;;5090718;28;20035;-69
2023/10/31 05:46:13;;;;;;;7.90;2.58;;;25.20;52.60;;;;;;5081863;28;20383;-69
2023/10/31 05:48:44;;;;;;;7.83;2.43;;;25.20;52.60;;;;;;5070980;28;20418;-70
2023/10/31 05:51:13;;;;;;;7.53;3.28;;;25.20;52.60;;;;;;5081402;28;20142;-68
2023/10/31 05:53:40;;;;;;;7.18;2.95;;;25.30;52.50;;;;;;5091066;28;20066;-69
2023/10/31 05:56:07;;;;;;;7.90;3.08;;;25.20;52.50;;;;;;5091093;28;20032;-70
2023/10/31 05:58:33;;;;;;;9.05;2.42;;;25.20;52.60;;;;;;5090610;28;20036;-68
2023/10/31 06:00:59;;;;;;;4.45;2.90;;;25.30;52.60;;;;;;5090256;28;20044;-69
2023/10/31 06:03:25;;;;;;;5.13;2.63;;;25.30;52.50;;;;;;5091565;28;20071;-70
2023/10/31 06:05:51;;;;;;;6.00;2.72;;;25.30;52.50;;;;;;5088944;28;20044;-70
2023/10/31 06:08:17;;;;;;;7.32;3.20;;;25.30;52.50;;;;;;5091171;28;20034;-68
2023/10/31 06:10:43;;;;;;;5.35;2.47;;;25.20;52.50;;;;;;5090891;28;20036;-70
2023/10/31 06:13:09;;;;;;;4.15;2.33;;;25.30;52.50;;;;;;5090985;28;20085;-71
2023/10/31 06:15:35;;;;;;;6.80;2.83;;;25.30;52.50;;;;;;5091786;28;20040;-69
2023/10/31 06:18:02;;;;;;;5.93;2.50;;;25.30;52.40;;;;;;5094863;28;20386;-70
2023/10/31 06:20:29;;;;;;;9.00;2.47;;;25.20;52.40;;;;;;5093275;28;20119;-70
2023/10/31 06:22:55;;;;;;;4.43;2.15;;;25.30;52.40;;;;;;5093445;28;20043;-69
2023/10/31 06:25:21;;;;;;;4.53;2.08;;;25.40;52.40;;;;;;5091791;28;20039;-70
2023/10/31 06:27:47;;;;;;;4.60;2.28;;;25.40;52.30;;;;;;5094673;28;20020;-70
2023/10/31 06:30:13;;;;;;;4.15;2.08;;;25.30;52.30;;;;;;5094316;28;20146;-70
2023/10/31 06:32:40;;;;;;;3.25;2.22;;;25.50;52.20;;;;;;5094397;28;20026;-70
2023/10/31 06:35:07;;;;;;;4.13;1.80;;;25.30;52.30;;;;;;5091804;28;20135;-70
2023/10/31 06:37:33;;;;;;;3.05;2.15;;;25.40;52.10;;;;;;5091511;28;20047;-69
2023/10/31 06:39:59;;;;;;;10.05;2.60;;;25.30;52.20;;;;;;5094484;28;20399;-70
2023/10/31 06:42:24;;;;;;;6.85;2.42;;;25.30;52.20;;;;;;5094623;28;20059;-69
2023/10/31 06:44:50;;;;;;;5.40;3.47;;;25.40;52.10;;;;;;5091907;28;20067;-68
2023/10/31 06:47:16;;;;;;;7.93;3.05;;;25.30;52.10;;;;;;5115666;27;20483;-68
2023/10/31 06:49:42;;;;;;;3.10;2.15;;;25.30;52.10;;;;;;5093670;28;20388;-69
2023/10/31 06:52:08;;;;;;;2.38;1.88;;;25.30;51.40;;;;;;5093966;28;20101;-69
2023/10/31 06:54:34;;;;;;;2.55;1.80;;;25.50;50.40;;;;;;5089758;28;20051;-69
2023/10/31 06:57:01;;;;;;;9.32;2.42;;;25.40;48.90;;;;;;5094334;28;20041;-68
2023/10/31 06:59:29;;;;;;;3.00;1.77;;;25.30;47.30;;;;;;5092638;28;20030;-70
2023/10/31 07:01:55;;;;;;;3.15;1.95;;;25.50;49.40;;;;;;5094100;28;20495;-71
2023/10/31 07:04:21;;;;;;;6.18;2.17;;;25.60;51.40;;;;;;5092079;28;20086;-70
2023/10/31 07:06:47;;;;;;;2.10;1.88;;;25.50;45.80;;;;;;5091943;28;20028;-70
2023/10/31 07:09:14;;;;;;;2.22;2.00;;;25.60;47.00;;;;;;5093643;28;20036;-69
2023/10/31 07:11:40;;;;;;;5.70;3.15;;;25.40;46.30;;;;;;5093751;28;20506;-70
2023/10/31 07:14:06;;;;;;;4.75;4.25;;;25.50;45.60;;;;;;5093437;28;20052;-70
2023/10/31 07:16:33;;;;;;;5.70;4.95;;;25.60;46.20;;;;;;5092894;28;20047;-70
2023/10/31 07:18:59;;;;;;;7.60;5.65;;;25.40;46.60;;;;;;5093722;28;20024;-69
2023/10/31 07:21:26;;;;;;;6.60;5.63;;;25.50;47.00;;;;;;5093532;28;20499;-70
2023/10/31 07:23:52;;;;;;;9.48;6.93;;;25.60;48.10;;;;;;5091998;28;20039;-70
2023/10/31 07:26:18;;;;;;;10.63;6.57;;;25.60;48.20;;;;;;5091089;28;20020;-70
2023/10/31 07:28:44;;;;;;;8.57;6.82;;;25.70;49.80;;;;;;5091626;28;20028;-69
2023/10/31 07:31:10;;;;;;;3.70;2.30;;;25.70;51.50;;;;;;5092296;28;20031;-69
2023/10/31 07:33:36;;;;;;;4.38;2.30;;;25.80;48.90;;;;;;5090286;28;20487;-68
2023/10/31 07:36:02;;;;;;;6.10;2.03;;;25.80;48.70;;;;;;5092980;28;20107;-69
2023/10/31 07:38:28;;;;;;;4.28;2.78;;;25.80;51.70;;;;;;5092221;28;20059;-70
2023/10/31 07:40:54;;;;;;;6.40;2.88;;;25.70;52.10;;;;;;5092867;28;20058;-69
2023/10/31 07:43:20;;;;;;;5.30;2.42;;;25.80;52.30;;;;;;5091567;28;20032;-69
2023/10/31 07:45:46;;;;;;;5.30;2.35;;;25.80;52.80;;;;;;5092730;28;20031;-68
2023/10/31 07:48:12;;;;;;;4.55;2.45;;;25.80;51.40;;;;;;5077773;28;20039;-70
2023/10/31 07:50:38;;;;;;;4.20;2.00;;;25.90;48.20;;;;;;5083265;28;20118;-69
2023/10/31 07:53:04;;;;;;;5.88;2.05;;;26.00;49.40;;;;;;5074514;28;20111;-67
2023/10/31 07:55:30;;;;;;;6.80;2.13;;;26.20;52.40;;;;;;5085286;28;20039;-71
2023/10/31 07:57:56;;;;;;;4.18;2.80;;;26.20;51.70;;;;;;5089413;28;20028;-68
2023/10/31 08:00:22;;;;;;;6.78;2.50;;;26.20;51.70;;;;;;5092437;28;20146;-70
2023/10/31 08:02:48;;;;;;;4.47;2.10;;;26.40;51.70;;;;;;5092667;28;20024;-70
2023/10/31 08:05:14;;;;;;;3.50;2.10;;;26.60;51.00;;;;;;5092576;28;20035;-70
2023/10/31 08:07:40;;;;;;;4.05;2.50;;;26.60;48.20;;;;;;5091598;28;20043;-70
2023/10/31 08:10:06;;;;;;;4.72;1.77;;;26.60;47.20;;;;;;5093000;28;20048;-69
2023/10/31 08:12:32;;;;;;;2.10;1.58;;;26.70;48.50;;;;;;5090799;28;20081;-70
2023/10/31 08:14:59;;;;;;;4.75;1.77;;;26.60;51.00;;;;;;5072490;28;20061;-68
2023/10/31 08:17:26;;;;;;;3.88;2.25;;;26.80;51.20;;;;;;5089062;28;20109;-69
2023/10/31 08:19:52;;;;;;;3.40;1.52;;;26.70;50.70;;;;;;5092060;28;20043;-69
2023/10/31 08:22:18;;;;;;;6.10;1.98;;;26.80;50.70;;;;;;5091942;28;20074;-69
2023/10/31 08:24:44;;;;;;;9.75;2.20;;;26.80;50.50;;;;;;5088557;28;20028;-69
2023/10/31 08:27:11;;;;;;;3.15;1.67;;;26.70;50.80;;;;;;5091842;28;20043;-68
2023/10/31 08:29:37;;;;;;;3.47;2.28;;;26.60;50.10;;;;;;5089424;28;20055;-69
2023/10/31 08:32:03;;;;;;;3.80;2.05;;;26.70;50.00;;;;;;5091875;28;20036;-68
2023/10/31 08:34:29;;;;;;;6.03;2.15;;;26.70;49.40;;;;;;5091687;28;20032;-69
2023/10/31 08:36:57;;;;;;;4.90;2.30;;;26.60;49.40;;;;;;5085671;28;20036;-69
2023/10/31 08:39:22;;;;;;;3.97;1.88;;;26.70;49.20;;;;;;5085666;28;20044;-69
2023/10/31 08:41:56;;;;;;;5.80;1.80;;;26.70;49.20;;;;;;5086968;28;20055;-67
2023/10/31 08:44:23;;;;;;;6.03;2.33;;;26.60;48.90;;;;;;5085310;28;20032;-67
2023/10/31 08:46:49;;;;;;;2.70;2.00;;;26.60;48.80;;;;;;5092303;28;20128;-69
2023/10/31 08:49:16;;;;;;;2.72;1.52;;;26.60;48.60;;;;;;5105985;28;20042;-70
2023/10/31 08:51:43;;;;;;;2.83;1.70;;;26.70;48.70;;;;;;5112443;28;20072;-68
2023/10/31 08:54:09;;;;;;;2.20;1.35;;;26.60;48.50;;;;;;5093103;28;20039;-71
2023/10/31 08:56:35;;;;;;;3.22;2.03;;;26.60;48.60;;;;;;5112449;28;20033;-69
2023/10/31 08:59:01;;;;;;;3.13;2.20;;;26.60;49.30;;;;;;5089340;28;20048;-70
2023/10/31 09:01:30;;;;;;;6.63;2.17;;;26.60;48.80;;;;;;5092092;28;20047;-70
2023/10/31 09:03:58;;;;;;;4.15;2.40;;;26.70;50.30;;;;;;5089641;28;20381;-69
2023/10/31 09:06:24;;;;;;;9.95;2.50;;;26.80;52.00;;;;;;5091896;28;20020;-70
2023/10/31 09:08:50;;;;;;;1.48;1.08;;;27.00;48.80;;;;;;5091654;28;20036;-71
2023/10/31 09:11:16;;;;;;;6.82;3.33;;;26.80;48.00;;;;;;5091876;28;20043;-71
2023/10/31 09:13:42;;;;;;;8.93;1.90;;;26.70;47.70;;;;;;5084566;28;20064;-70
2023/10/31 09:16:09;;;;;;;6.32;2.10;;;26.80;47.90;;;;;;5092040;28;20059;-71
2023/10/31 09:18:36;;;;;;;3.80;2.20;;;26.70;47.90;;;;;;5091127;28;20088;-72
2023/10/31 09:21:02;;;;;;;8.40;2.80;;;26.70;48.00;;;;;;5091079;28;20040;-71
2023/10/31 09:23:29;;;;;;;4.55;2.40;;;26.70;47.90;;;;;;5071921;28;20453;-72
2023/10/31 09:25:55;;;;;;;6.57;2.50;;;26.60;47.80;;;;;;5071384;28;20036;-72
2023/10/31 09:28:21;;;;;;;3.90;2.30;;;26.70;48.00;;;;;;5084182;28;20081;-74
2023/10/31 09:30:47;;;;;;;4.93;2.33;;;26.70;47.90;;;;;;5089611;28;20036;-75
2023/10/31 09:33:13;;;;;;;5.53;2.60;;;26.60;47.90;;;;;;5091191;28;20066;-74
2023/10/31 09:35:39;;;;;;;4.60;2.17;;;26.60;47.90;;;;;;5091216;28;20043;-72
2023/10/31 09:38:06;;;;;;;4.85;1.90;;;26.50;47.70;;;;;;5088497;28;20344;-71
2023/10/31 09:40:33;;;;;;;4.70;2.35;;;26.60;47.80;;;;;;5089076;28;20043;-72
2023/10/31 09:42:59;;;;;;;3.72;2.13;;;26.70;47.80;;;;;;5081888;28;20036;-72
2023/10/31 09:45:25;;;;;;;4.15;2.20;;;26.60;47.80;;;;;;5070681;28;20072;-73
2023/10/31 09:47:51;;;;;;;5.55;2.15;;;26.50;47.80;;;;;;5070640;28;20063;-73
2023/10/31 09:50:17;;;;;;;9.48;2.20;;;26.50;47.80;;;;;;5070852;28;20033;-72
2023/10/31 09:52:45;;;;;;;3.67;2.22;;;26.60;47.80;;;;;;5071147;28;20081;-72
2023/10/31 09:55:11;;;;;;;3.85;1.95;;;26.50;47.80;;;;;;5071088;28;20037;-72
2023/10/31 09:57:37;;;;;;;1.38;1.33;;;26.40;47.80;;;;;;5069456;28;20032;-70
2023/10/31 10:00:04;;;;;;;4.80;2.15;;;26.30;47.80;;;;;;5086344;28;20079;-72
2023/10/31 10:02:35;;;;;;;3.20;2.30;;;26.40;47.80;;;;;;5070885;28;20032;-72
2023/10/31 10:05:02;;;;;;;3.00;2.28;;;26.30;47.90;;;;;;5070551;28;20097;-72
2023/10/31 10:07:28;;;;;;;4.00;2.10;;;26.40;47.90;;;;;;5070713;28;20043;-71
2023/10/31 10:09:56;;;;;;;4.82;1.67;;;26.40;48.10;;;;;;5070502;28;20033;-70
2023/10/31 10:12:22;;;;;;;2.28;1.83;;;26.20;48.20;;;;;;5078105;28;20066;-69
2023/10/31 10:14:49;;;;;;;7.55;2.50;;;26.30;48.20;;;;;;5090887;28;20068;-71
2023/10/31 10:17:18;;;;;;;4.22;2.38;;;26.20;48.50;;;;;;5090706;28;20050;-70
2023/10/31 10:19:44;;;;;;;4.90;2.05;;;26.40;48.60;;;;;;5082038;28;20040;-70
2023/10/31 10:22:10;;;;;;;2.17;1.70;;;26.20;49.00;;;;;;5071491;28;20032;-71
2023/10/31 10:24:40;;;;;;;5.97;1.98;;;26.20;48.70;;;;;;5083552;28;20048;-70
2023/10/31 10:27:08;;;;;;;8.80;2.35;;;26.10;48.70;;;;;;5073492;28;20431;-70
2023/10/31 10:29:35;;;;;;;5.47;1.95;;;26.20;48.80;;;;;;5090622;28;20148;-71
2023/10/31 10:32:01;;;;;;;2.85;1.73;;;26.20;48.80;;;;;;5074363;28;20040;-69
2023/10/31 10:34:27;;;;;;;3.08;2.17;;;26.00;48.90;;;;;;5070412;28;20043;-71
2023/10/31 10:36:56;;;;;;;3.10;2.08;;;26.10;48.90;;;;;;5083737;28;20110;-70
2023/10/31 10:39:23;;;;;;;4.95;2.38;;;26.10;48.90;;;;;;5091502;28;20371;-71
2023/10/31 10:41:55;;;;;;;7.95;2.17;;;26.10;48.90;;;;;;5090534;28;20388;-70
2023/10/31 10:44:42;;;;;;;;;;;26.20;48.90;;;;;;5090575;28;20073;-69
2023/10/31 10:47:10;;;;;;;4.90;2.08;;;26.20;49.00;;;;;;5089268;28;19912;-70
2023/10/31 10:49:37;;;;;;;3.13;1.90;;;26.20;49.00;;;;;;5089890;28;20131;-70
2023/10/31 10:52:20;;;;;;;3.97;2.05;;;26.00;49.00;;;;;;5090447;28;20035;-70
2023/10/31 10:55:04;;;;;;;5.53;2.10;;;26.00;49.10;;;;;;5088097;28;20044;-70
2023/10/31 10:58:00;;;;;;;7.75;2.38;;;25.90;48.60;;;;;;5088386;28;20622;-70
2023/10/31 11:00:26;;;;;;;9.18;2.00;;;26.00;49.10;;;;;;5075334;28;20456;-70
2023/10/31 11:02:53;;;;;;;4.22;1.80;;;25.90;48.60;;;;;;5073266;28;20063;-70
2023/10/31 11:05:19;;;;;;;2.25;1.70;;;26.00;49.10;;;;;;5073696;28;20025;-70
2023/10/31 11:07:47;;;;;;;7.85;1.67;;;25.90;48.70;;;;;;5073555;28;20044;-70
2023/10/31 11:10:14;;;;;;;3.25;1.70;;;25.90;48.70;;;;;;5073403;28;20036;-70
2023/10/31 11:12:40;;;;;;;3.38;2.03;;;25.90;48.80;;;;;;5077081;28;20036;-70
2023/10/31 11:15:08;;;;;;;3.65;2.35;;;25.90;48.70;;;;;;5073831;28;20084;-70
2023/10/31 11:17:40;;;;;;;4.70;2.03;;;25.80;48.60;;;;;;5073574;28;20036;-70
2023/10/31 11:20:10;;;;;;;3.97;1.42;;;25.80;48.50;;;;;;5073468;28;20033;-69
2023/10/31 11:22:45;;;;;;;3.03;1.70;;;25.80;48.40;;;;;;5073415;28;20409;-70
2023/10/31 11:25:20;;;;;;;5.28;1.60;;;25.80;48.20;;;;;;5071272;28;20082;-70
2023/10/31 11:27:46;;;;;;;1.13;0.82;;;25.90;48.10;;;;;;5078866;28;20475;-70
2023/10/31 11:30:25;;;;;;;29.63;5.82;;;25.70;49.20;;;;;;5093370;28;20103;-70
2023/10/31 11:32:55;;;;;;;5.15;1.20;;;26.30;52.20;;;;;;5092414;28;20510;-69
2023/10/31 11:35:23;;;;;;;5.45;1.35;;;26.90;58.00;;;;;;5107364;28;20044;-70
2023/10/31 11:38:01;;;;;;;1.60;1.13;;;27.00;50.50;;;;;;5089670;28;20391;-69
2023/10/31 11:40:27;;;;;;;6.13;1.55;;;26.80;49.00;;;;;;5092434;28;20051;-71
2023/10/31 11:42:57;;;;;;;6.20;2.28;;;26.80;49.10;;;;;;5091589;28;20059;-72
2023/10/31 11:45:37;;;;;;;3.38;2.13;;;26.80;48.80;;;;;;5092765;28;20052;-69
2023/10/31 11:48:07;;;;;;;2.10;1.23;;;26.70;48.00;;;;;;5091980;28;20484;-72
2023/10/31 11:50:36;;;;;;;5.22;1.38;;;26.70;47.30;;;;;;5090096;28;20028;-72
2023/10/31 11:53:05;;;;;;;3.15;1.00;;;26.60;47.20;;;;;;5093006;28;20504;-72
2023/10/31 11:55:36;;;;;;;13.15;2.80;;;26.60;46.80;;;;;;5092665;28;20380;-71
2023/10/31 11:58:22;;;;;;;3.17;2.20;;;26.80;46.70;;;;;;5091481;28;20076;-72
2023/10/31 12:00:50;;;;;;;4.32;2.00;;;26.90;47.20;;;;;;5086171;28;20093;-73
2023/10/31 12:03:18;;;;;;;2.67;2.30;;;26.80;46.60;;;;;;5092492;28;20020;-74
2023/10/31 12:05:55;;;;;;;3.63;1.77;;;26.90;46.00;;;;;;5107090;28;20055;-73
2023/10/31 12:08:32;;;;;;;4.40;1.80;;;26.70;46.10;;;;;;5091675;28;20089;-71
2023/10/31 12:11:08;;;;;;;9.45;1.90;;;26.80;46.00;;;;;;5107387;28;20048;-72
2023/10/31 12:13:36;;;;;;;3.45;1.02;;;27.00;46.40;;;;;;5090875;28;20128;-72
2023/10/31 12:16:02;;;;;;;5.70;1.88;;;26.80;45.80;;;;;;5088685;28;20025;-73
2023/10/31 12:18:29;;;;;;;2.40;1.95;;;26.80;45.70;;;;;;5082788;28;20108;-72
2023/10/31 12:20:55;;;;;;;8.38;1.70;;;26.70;45.70;;;;;;5077051;28;20455;-69
2023/10/31 12:23:21;;;;;;;7.97;2.10;;;26.90;45.80;;;;;;5081262;28;20032;-71
2023/10/31 12:25:54;;;;;;;1.10;1.00;;;26.70;46.00;;;;;;5082259;28;20471;-72
2023/10/31 12:28:24;;;;;;;5.28;1.80;;;26.70;45.60;;;;;;5086305;28;20040;-71
2023/10/31 12:30:54;;;;;;;2.10;1.20;;;26.70;45.90;;;;;;5087037;28;20065;-71
2023/10/31 12:33:24;;;;;;;1.80;1.50;;;26.80;45.90;;;;;;5092529;28;20031;-71
2023/10/31 12:35:56;;;;;;;3.63;1.85;;;26.80;46.30;;;;;;5085015;28;20702;-71
2023/10/31 12:38:22;;;;;;;2.42;1.80;;;27.00;46.50;;;;;;5084973;28;20028;-70
2023/10/31 12:40:49;;;;;;;6.22;1.63;;;27.00;47.10;;;;;;5087842;28;20029;-70
2023/10/31 12:43:17;;;;;;;1.30;1.20;;;27.00;46.90;;;;;;5089281;28;20035;-70
2023/10/31 12:45:43;;;;;;;1.02;0.95;;;27.10;46.60;;;;;;5085762;28;20032;-70